This is the latest recevied weather packets stored in our database for station/object KC1OEK-13. If no packets are shown the sender has not sent any weather packets the latest 10 day(s).
| Time | Temp. | Humidity | Pressure | Rain* | Wind** | Luminosity | Snow |
|---|---|---|---|---|---|---|---|
| 1777384491 | 16.11° C | 47% | 1023.2 hPa | 0 mm | - | 536 W/m² | - |
| 1777384185 | 16.67° C | 48% | 1023.4 hPa | 0 mm | - | 516 W/m² | - |
| 1777383882 | 16.67° C | 48% | 1023.4 hPa | 0 mm | - | 508 W/m² | - |
| 1777383578 | 16.67° C | 50% | 1023.5 hPa | 0 mm | - | 496 W/m² | - |
| 1777383275 | 16.11° C | 50% | 1023.2 hPa | 0 mm | - | 486 W/m² | - |
| 1777382971 | 16.11° C | 49% | 1023.2 hPa | 0 mm | - | 471 W/m² | - |
| 1777382667 | 15° C | 53% | 1023.5 hPa | 0 mm | - | 458 W/m² | - |
| 1777382363 | 15° C | 51% | 1023.3 hPa | 0 mm | - | 441 W/m² | - |
| 1777382059 | 14.44° C | 53% | 1023.3 hPa | 0 mm | - | 427 W/m² | - |
| 1777381755 | 13.89° C | 56% | 1023.4 hPa | 0 mm | - | 415 W/m² | - |
| 1777381450 | 13.33° C | 58% | 1023.4 hPa | 0 mm | - | 398 W/m² | - |
| 1777381146 | 12.22° C | 65% | 1023.3 hPa | 0 mm | - | 387 W/m² | - |
| 1777380843 | 11.67° C | 67% | 1023.5 hPa | 0 mm | - | 371 W/m² | - |
| 1777380540 | 11.67° C | 69% | 1023.5 hPa | 0 mm | - | 356 W/m² | - |
| 1777380236 | 10.56° C | 71% | 1023.4 hPa | 0 mm | - | 339 W/m² | - |
| 1777379932 | 10.56° C | 72% | 1023.6 hPa | 0 mm | - | 323 W/m² | - |
| 1777379628 | 10.56° C | 74% | 1023.4 hPa | 0 mm | - | 303 W/m² | - |
| 1777379324 | 10° C | 77% | 1024 hPa | 0 mm | - | 280 W/m² | - |
| 1777379018 | 9.44° C | 80% | 1023.8 hPa | 0 mm | - | 260 W/m² | - |
| 1777378714 | 8.89° C | 80% | 1023.9 hPa | 0 mm | - | 230 W/m² | - |
| 1777378411 | 8.33° C | 82% | 1024.1 hPa | 0 mm | - | 190 W/m² | - |
| 1777378105 | 7.78° C | 86% | 1024.1 hPa | 0 mm | - | 157 W/m² | - |
| 1777377800 | 7.22° C | 89% | 1024.1 hPa | 0 mm | - | 140 W/m² | - |
| 1777377495 | 6.11° C | 93% | 1024.2 hPa | 0 mm | - | 125 W/m² | - |
| 1777377190 | 5.56° C | 96% | 1024.3 hPa | 0 mm | - | 101 W/m² | - |
* Rain latest hour (hover to see other rain measurements)
** Current wind speed in m/s (hover to see current wind gust speed)